Terminal Aerodrome Forecast
Issued by NWS

Home | Current Version | Previous Version | Text Only | Print | Product List | Glossary On
Versions: 1 2 3 4 5 6 7 8 9 10 11 12 13 14 15 16 17 18 19 20 21
000
FTUS45 KFGZ 310500
TAFPRC
TAF
KPRC 310533Z 3106/0106 VRB05KT P6SM VCSH OVC050
      TEMPO 3106/3110 2SM -RA BR OVC005
     FM311600 VRB05KT P6SM SCT005 SCT025 BKN050
      TEMPO 3116/3120 4SM -RA BKN025 OVC050
     FM312000 VRB05KT P6SM BKN030
     FM010200 20005KT P6SM FEW030=

USA.gov is the U.S. government's official web portal to all federal, state and local government web resources and services.